トロムソ の空港の天気 - METARとTAF

トロムソ空港 ( ENTC / TOS ) - ノルウェー トロムス県トロムソ
飛行場実況気象(Metar)
観測時間01/20 18:20 CET (01/20 17:20 UTC)
風向・風速北西 8m/s
視程10km以上
天気現象周辺でしゅう雨
少しの雲 雲底高度 300m
全天の4割程度の雲 雲底高度 1830m
気温-2℃
湿度54%
気圧1005hPa
METARENTC 201720Z 31015KT 280V350 9999 VCSH FEW010 SCT060 M02/M10 Q1005 TEMPO 0500 +SHSNGS VV003 RMK WIND 2600FT 31047G64KT
過去の天気等 Google飛行場航空写真 Wunderground天気予報

過去48時間のMETAR

飛行場予報(TAF)
発表時間: -
20日16時 CET ~ 21日1時 CET に一時的に
風向・風速西 10m/s 瞬間風速 15m/s
視程500m
天気現象強いしゅう雪あられ
全天を覆う雲 鉛直視程 90m
20日16時 CET ~ 21日13時 CET に一時的に
全天の4割程度の積乱雲 雲底高度 610m
21日1時 CET ~ 21日13時 CET に一時的に
視程800m
天気現象しゅう雪
全天を覆う雲 鉛直視程 180m
TAF AMD ENTC 2015/2112 30015KT 9999 -SHSN FEW008 SCT025
TEMPO 2015/2024 28020G30KT 0500 +SHSNGS VV003
TEMPO 2015/2112 SCT020CB
TEMPO 2100/2112 0800 SHSN VV006